createdAt,value
2022-09-20T00:04:49.854Z,4.95
2022-09-20T00:09:52.394Z,5.32
2022-09-20T00:14:54.792Z,5.22
2022-09-20T00:19:57.238Z,5.10
2022-09-20T00:24:59.716Z,4.95
2022-09-20T00:30:02.199Z,4.93
2022-09-20T00:35:07.952Z,4.28
2022-09-20T00:40:14.725Z,6.25
2022-09-20T00:45:24.146Z,6.60
2022-09-20T00:50:48.231Z,4.82
2022-09-20T00:55:52.774Z,5.47
2022-09-20T01:00:57.407Z,5.72
2022-09-20T01:06:03.646Z,5.22
2022-09-20T01:11:06.073Z,5.13
2022-09-20T01:16:08.880Z,4.35
2022-09-20T01:21:11.300Z,4.65
2022-09-20T01:26:16.619Z,4.78
2022-09-20T01:31:29.942Z,4.80
2022-09-20T01:36:38.268Z,4.28
2022-09-20T01:41:42.413Z,4.05
2022-09-20T01:46:46.888Z,4.00
2022-09-20T01:51:55.009Z,3.70
2022-09-20T01:57:12.330Z,4.38
2022-09-20T02:02:22.731Z,3.70
2022-09-20T02:07:43.242Z,3.60
2022-09-20T02:12:59.328Z,4.35
2022-09-20T02:18:19.891Z,3.95
2022-09-20T02:23:43.398Z,4.32
2022-09-20T02:28:51.764Z,4.80
2022-09-20T02:34:15.773Z,4.78
2022-09-20T02:39:23.061Z,5.15
2022-09-20T02:49:47.234Z,4.47
2022-09-20T02:54:58.376Z,4.05
2022-09-20T03:00:26.977Z,4.00
2022-09-20T03:05:50.950Z,3.30
2022-09-20T03:11:17.148Z,4.40
2022-09-20T03:16:27.862Z,4.18
2022-09-20T03:21:36.445Z,3.80
2022-09-20T03:26:42.659Z,4.05
2022-09-20T03:31:49.135Z,4.18
2022-09-20T03:36:54.750Z,3.00
2022-09-20T03:42:27.210Z,4.30
2022-09-20T03:47:46.921Z,3.65
2022-09-20T03:52:58.488Z,3.67
2022-09-20T03:58:21.097Z,3.50
2022-09-20T04:03:53.530Z,3.85
2022-09-20T04:09:16.216Z,3.60
2022-09-20T04:14:33.947Z,3.08
2022-09-20T04:19:42.298Z,3.15
2022-09-20T04:24:54.723Z,3.35
2022-09-20T04:30:06.136Z,2.88
2022-09-20T04:35:59.043Z,3.35
2022-09-20T04:41:06.980Z,3.03
2022-09-20T04:46:24.539Z,3.05
2022-09-20T04:51:51.348Z,3.10
2022-09-20T04:57:47.408Z,3.35
2022-09-20T05:03:00.304Z,3.05
2022-09-20T05:08:14.890Z,2.95
2022-09-20T05:13:34.754Z,3.03
2022-09-20T05:19:04.100Z,3.22
2022-09-20T05:24:24.702Z,3.40
2022-09-20T05:29:42.496Z,2.40
2022-09-20T05:34:44.830Z,2.88
2022-09-20T05:39:54.708Z,2.70
2022-09-20T05:45:21.684Z,2.45
2022-09-20T05:50:53.857Z,3.00
2022-09-20T05:56:23.091Z,2.85
2022-09-20T06:01:35.481Z,3.00
2022-09-20T06:06:52.946Z,2.53
2022-09-20T06:12:12.704Z,2.70
2022-09-20T06:17:37.846Z,2.33
2022-09-20T06:22:47.318Z,2.20
2022-09-20T06:27:57.157Z,2.00
2022-09-20T06:33:01.634Z,1.90
2022-09-20T06:38:25.511Z,2.45
2022-09-20T06:43:31.589Z,2.60
2022-09-20T06:48:34.470Z,2.50
2022-09-20T06:53:39.804Z,2.17
2022-09-20T06:58:42.355Z,2.42
2022-09-20T07:03:44.706Z,2.50
2022-09-20T07:08:47.634Z,1.75
2022-09-20T07:13:55.275Z,1.58
2022-09-20T07:18:57.971Z,1.70
2022-09-20T07:24:02.051Z,1.98
2022-09-20T07:29:04.562Z,1.65
2022-09-20T07:34:06.927Z,1.88
2022-09-20T07:39:09.237Z,1.65
2022-09-20T07:44:28.001Z,1.75
2022-09-20T07:49:30.516Z,1.92
2022-09-20T07:54:32.923Z,1.90
2022-09-20T07:59:35.420Z,1.40
2022-09-20T08:04:37.774Z,1.23
2022-09-20T08:09:40.145Z,1.00
2022-09-20T08:14:42.516Z,0.90
2022-09-20T08:19:45.209Z,0.75
2022-09-20T08:24:47.565Z,0.60
2022-09-20T08:29:50.228Z,1.08
2022-09-20T08:34:52.617Z,0.88
2022-09-20T08:39:57.923Z,0.80
2022-09-20T08:45:06.788Z,0.63
2022-09-20T08:50:17.284Z,0.90
2022-09-20T08:55:28.122Z,0.60
2022-09-20T09:00:33.301Z,0.50
2022-09-20T09:05:47.615Z,0.60
2022-09-20T09:10:55.212Z,0.50
2022-09-20T09:16:00.925Z,0.50
2022-09-20T09:21:05.124Z,0.52
2022-09-20T09:26:16.238Z,0.50
2022-09-20T09:31:26.855Z,0.38
2022-09-20T09:36:29.420Z,0.40
2022-09-20T09:41:35.795Z,0.63
2022-09-20T09:46:43.451Z,0.57
2022-09-20T09:57:16.139Z,0.30
2022-09-20T10:02:36.924Z,0.38
2022-09-20T10:07:52.165Z,0.40
2022-09-20T10:13:22.351Z,0.40
2022-09-20T10:18:49.406Z,0.30
2022-09-20T10:24:17.007Z,0.60
2022-09-20T10:29:46.595Z,0.15
2022-09-20T10:35:02.109Z,0.75
2022-09-20T10:40:46.650Z,0.40
2022-09-20T10:51:46.737Z,0.40
2022-09-20T10:56:52.310Z,0.30
2022-09-20T11:02:06.882Z,0.40
2022-09-20T11:07:30.267Z,0.30
2022-09-20T11:12:50.199Z,0.30
2022-09-20T11:18:14.551Z,0.60
2022-09-20T11:23:23.749Z,0.50
2022-09-20T11:28:32.708Z,0.30
2022-09-20T11:33:44.000Z,0.40
2022-09-20T11:38:53.099Z,0.38
2022-09-20T11:44:00.589Z,0.40
2022-09-20T11:49:12.424Z,0.30
2022-09-20T11:54:27.895Z,0.43
2022-09-20T11:59:40.547Z,0.40
2022-09-20T12:04:46.036Z,0.40
2022-09-20T12:10:00.936Z,0.52
2022-09-20T12:15:07.042Z,0.43
2022-09-20T12:20:39.911Z,0.60
2022-09-20T12:26:03.305Z,0.40
2022-09-20T12:31:29.692Z,0.40
2022-09-20T12:36:36.292Z,1.30
2022-09-20T12:42:06.443Z,1.38
2022-09-20T12:47:11.380Z,0.80
2022-09-20T12:52:47.364Z,0.75
2022-09-20T12:58:14.446Z,0.77
2022-09-20T13:03:21.794Z,0.40
2022-09-20T13:08:28.160Z,0.30
2022-09-20T13:13:41.361Z,0.43
2022-09-20T13:18:44.006Z,0.40
2022-09-20T13:23:51.020Z,0.40
2022-09-20T13:28:56.179Z,0.28
2022-09-20T13:34:23.394Z,0.43
2022-09-20T13:39:31.635Z,0.25
2022-09-20T13:44:35.210Z,0.32
2022-09-20T13:49:43.886Z,0.50
2022-09-20T13:54:46.527Z,0.65
2022-09-20T13:59:49.403Z,1.02
2022-09-20T14:04:54.700Z,0.52
2022-09-20T14:09:58.302Z,0.73
2022-09-20T14:15:11.486Z,0.77
2022-09-20T14:20:15.957Z,0.70
2022-09-20T14:25:28.126Z,0.63
2022-09-20T14:30:33.240Z,1.45
2022-09-20T14:35:35.655Z,0.70
2022-09-20T14:40:48.713Z,0.77
2022-09-20T14:46:00.694Z,0.90
2022-09-20T14:51:12.761Z,2.25
2022-09-20T14:56:16.290Z,3.15
2022-09-20T15:01:26.089Z,2.00
2022-09-20T15:06:28.425Z,1.23
2022-09-20T15:11:30.795Z,2.10
2022-09-20T15:16:36.299Z,1.20
2022-09-20T15:21:39.098Z,1.45
2022-09-20T15:26:41.462Z,1.50
2022-09-20T15:31:48.217Z,1.88
2022-09-20T15:36:50.919Z,1.30
2022-09-20T15:41:53.839Z,0.90
2022-09-20T15:46:56.447Z,1.58
2022-09-20T15:51:58.846Z,3.88
2022-09-20T15:57:01.297Z,4.85
2022-09-20T16:02:03.874Z,4.40
2022-09-20T16:07:09.541Z,3.53
2022-09-20T16:12:12.043Z,1.98
2022-09-20T16:17:15.206Z,2.28
2022-09-20T16:22:19.437Z,1.75
2022-09-20T16:27:21.886Z,1.83
2022-09-20T16:32:24.302Z,1.45
2022-09-20T16:37:26.753Z,1.58
2022-09-20T16:42:29.509Z,1.60
2022-09-20T16:47:31.819Z,1.60
2022-09-20T16:52:35.906Z,2.25
2022-09-20T16:57:38.522Z,1.42
2022-09-20T17:02:44.572Z,1.80
2022-09-20T17:07:49.549Z,2.10
2022-09-20T17:12:57.701Z,2.10
2022-09-20T17:18:00.266Z,2.65
2022-09-20T17:23:02.981Z,2.70
2022-09-20T17:28:05.347Z,2.97
2022-09-20T17:33:08.034Z,3.60
2022-09-20T17:38:10.598Z,3.15
2022-09-20T17:43:12.879Z,3.53
2022-09-20T17:48:15.714Z,4.90
2022-09-20T17:53:18.169Z,3.78
2022-09-20T17:58:20.610Z,4.70
2022-09-20T18:03:24.107Z,3.75
2022-09-20T18:08:26.485Z,4.25
2022-09-20T18:13:30.412Z,7.00
2022-09-20T18:18:33.212Z,7.18
2022-09-20T18:23:35.554Z,6.03
2022-09-20T18:28:38.091Z,6.38
2022-09-20T18:33:41.153Z,5.75
2022-09-20T18:38:46.986Z,5.88
2022-09-20T18:43:49.286Z,7.22
2022-09-20T18:48:55.903Z,7.80
2022-09-20T18:53:58.752Z,6.93
2022-09-20T18:59:09.408Z,9.20
2022-09-20T19:04:33.736Z,9.52
2022-09-20T19:10:03.910Z,9.00
2022-09-20T19:15:08.985Z,8.68
2022-09-20T19:20:51.717Z,11.40
2022-09-20T19:26:24.569Z,10.55
2022-09-20T19:31:32.262Z,8.80
2022-09-20T19:36:57.980Z,8.25
2022-09-20T19:42:20.088Z,7.78
2022-09-20T19:47:34.510Z,8.32
2022-09-20T19:52:39.507Z,8.70
2022-09-20T19:57:47.239Z,8.55
2022-09-20T20:02:49.995Z,8.30
2022-09-20T20:08:13.643Z,8.85
2022-09-20T20:14:02.563Z,8.43
2022-09-20T20:19:30.894Z,8.60
2022-09-20T20:24:36.160Z,9.60
2022-09-20T20:29:38.525Z,9.02
2022-09-20T20:34:40.934Z,8.32
2022-09-20T20:39:43.335Z,8.73
2022-09-20T20:44:46.128Z,7.70
2022-09-20T20:49:52.507Z,7.35
2022-09-20T20:54:55.141Z,5.43
2022-09-20T20:59:57.575Z,7.75
2022-09-20T21:05:01.311Z,7.18
2022-09-20T21:10:03.887Z,7.25
2022-09-20T21:15:06.725Z,6.93
2022-09-20T21:20:09.867Z,7.40
2022-09-20T21:25:12.833Z,7.15
2022-09-20T21:30:15.384Z,7.95
2022-09-20T21:35:17.756Z,8.80
2022-09-20T21:40:20.046Z,9.20
2022-09-20T21:45:25.162Z,9.20
2022-09-20T21:50:27.413Z,9.20
2022-09-20T21:55:29.751Z,8.35
2022-09-20T22:00:32.097Z,7.63
2022-09-20T22:05:34.844Z,9.23
2022-09-20T22:10:37.156Z,8.85
2022-09-20T22:15:39.562Z,7.68
2022-09-20T22:20:41.965Z,8.32
2022-09-20T22:25:44.216Z,7.97
2022-09-20T22:30:46.576Z,7.88
2022-09-20T22:35:48.990Z,8.18
2022-09-20T22:40:55.972Z,8.77
2022-09-20T22:46:03.599Z,8.05
2022-09-20T22:51:11.936Z,7.65
2022-09-20T22:56:25.690Z,6.88
2022-09-20T23:01:30.378Z,8.05
2022-09-20T23:06:41.505Z,7.40
2022-09-20T23:11:44.438Z,6.45
2022-09-20T23:16:47.312Z,7.40
2022-09-20T23:21:49.764Z,7.22
2022-09-20T23:26:52.192Z,8.35
2022-09-20T23:31:54.494Z,6.57
2022-09-20T23:36:56.899Z,7.00
2022-09-20T23:41:59.513Z,6.20
2022-09-20T23:47:01.855Z,6.85
2022-09-20T23:52:04.551Z,6.28
2022-09-20T23:57:06.872Z,5.57
